sensor_id;sensor_type;location;lat;lon;timestamp;P1;durP1;ratioP1;P2;durP2;ratioP2
71080;SDS011;58740;50.672;18.690;2023-12-07T00:02:17;64.20;;;26.80;;
71080;SDS011;58740;50.672;18.690;2023-12-07T00:04:50;71.50;;;29.90;;
71080;SDS011;58740;50.672;18.690;2023-12-07T00:07:23;68.40;;;26.30;;
71080;SDS011;58740;50.672;18.690;2023-12-07T00:09:57;73.40;;;28.90;;
71080;SDS011;58740;50.672;18.690;2023-12-07T00:12:30;62.70;;;24.20;;
71080;SDS011;58740;50.672;18.690;2023-12-07T00:15:05;68.90;;;28.90;;
71080;SDS011;58740;50.672;18.690;2023-12-07T00:17:39;71.20;;;28.40;;
71080;SDS011;58740;50.672;18.690;2023-12-07T00:20:13;68.20;;;26.40;;
71080;SDS011;58740;50.672;18.690;2023-12-07T00:22:47;64.10;;;28.40;;
71080;SDS011;58740;50.672;18.690;2023-12-07T00:25:20;64.30;;;28.10;;
71080;SDS011;58740;50.672;18.690;2023-12-07T00:27:53;74.60;;;30.40;;
71080;SDS011;58740;50.672;18.690;2023-12-07T00:30:27;75.90;;;29.80;;
71080;SDS011;58740;50.672;18.690;2023-12-07T00:33:00;77.50;;;30.20;;
71080;SDS011;58740;50.672;18.690;2023-12-07T00:35:33;71.50;;;28.10;;
71080;SDS011;58740;50.672;18.690;2023-12-07T00:38:07;84.70;;;29.60;;
71080;SDS011;58740;50.672;18.690;2023-12-07T00:40:41;82.80;;;32.10;;
71080;SDS011;58740;50.672;18.690;2023-12-07T00:43:14;71.20;;;29.60;;
71080;SDS011;58740;50.672;18.690;2023-12-07T00:45:48;75.80;;;29.60;;
71080;SDS011;58740;50.672;18.690;2023-12-07T00:48:22;83.20;;;30.40;;
71080;SDS011;58740;50.672;18.690;2023-12-07T00:50:55;83.10;;;30.60;;
71080;SDS011;58740;50.672;18.690;2023-12-07T00:53:28;80.50;;;31.70;;
71080;SDS011;58740;50.672;18.690;2023-12-07T00:56:04;83.70;;;32.10;;
71080;SDS011;58740;50.672;18.690;2023-12-07T00:58:38;77.70;;;30.50;;
71080;SDS011;58740;50.672;18.690;2023-12-07T01:01:11;85.10;;;33.50;;
71080;SDS011;58740;50.672;18.690;2023-12-07T01:03:44;85.90;;;33.60;;
71080;SDS011;58740;50.672;18.690;2023-12-07T01:06:18;85.40;;;33.40;;
71080;SDS011;58740;50.672;18.690;2023-12-07T01:08:51;90.90;;;36.60;;
71080;SDS011;58740;50.672;18.690;2023-12-07T01:11:25;89.50;;;35.70;;
71080;SDS011;58740;50.672;18.690;2023-12-07T01:13:58;86.90;;;33.30;;
71080;SDS011;58740;50.672;18.690;2023-12-07T01:16:32;89.10;;;35.70;;
71080;SDS011;58740;50.672;18.690;2023-12-07T01:19:05;86.40;;;34.40;;
71080;SDS011;58740;50.672;18.690;2023-12-07T01:21:39;85.80;;;31.80;;
71080;SDS011;58740;50.672;18.690;2023-12-07T01:24:12;81.70;;;31.10;;
71080;SDS011;58740;50.672;18.690;2023-12-07T01:26:46;87.10;;;31.80;;
71080;SDS011;58740;50.672;18.690;2023-12-07T01:29:20;92.60;;;36.20;;
71080;SDS011;58740;50.672;18.690;2023-12-07T01:31:53;86.50;;;36.70;;
71080;SDS011;58740;50.672;18.690;2023-12-07T01:34:26;85.30;;;35.10;;
71080;SDS011;58740;50.672;18.690;2023-12-07T01:37:00;100.80;;;36.30;;
71080;SDS011;58740;50.672;18.690;2023-12-07T01:39:33;82.10;;;33.30;;
71080;SDS011;58740;50.672;18.690;2023-12-07T01:42:07;84.80;;;33.50;;
71080;SDS011;58740;50.672;18.690;2023-12-07T01:44:42;87.30;;;34.10;;
71080;SDS011;58740;50.672;18.690;2023-12-07T01:47:16;86.70;;;32.40;;
71080;SDS011;58740;50.672;18.690;2023-12-07T01:49:50;77.20;;;32.00;;
71080;SDS011;58740;50.672;18.690;2023-12-07T01:52:25;86.90;;;33.10;;
71080;SDS011;58740;50.672;18.690;2023-12-07T01:55:00;79.90;;;32.50;;
71080;SDS011;58740;50.672;18.690;2023-12-07T01:57:34;83.90;;;31.70;;
71080;SDS011;58740;50.672;18.690;2023-12-07T02:00:10;80.80;;;30.10;;
71080;SDS011;58740;50.672;18.690;2023-12-07T02:02:46;85.10;;;34.30;;
71080;SDS011;58740;50.672;18.690;2023-12-07T02:05:20;84.60;;;32.40;;
71080;SDS011;58740;50.672;18.690;2023-12-07T02:07:54;86.40;;;32.90;;
71080;SDS011;58740;50.672;18.690;2023-12-07T02:10:28;93.20;;;34.70;;
71080;SDS011;58740;50.672;18.690;2023-12-07T02:13:01;92.60;;;35.00;;
71080;SDS011;58740;50.672;18.690;2023-12-07T02:15:35;85.80;;;31.70;;
71080;SDS011;58740;50.672;18.690;2023-12-07T02:18:16;85.20;;;33.40;;
71080;SDS011;58740;50.672;18.690;2023-12-07T02:21:04;83.40;;;32.90;;
71080;SDS011;58740;50.672;18.690;2023-12-07T02:23:43;81.90;;;31.00;;
71080;SDS011;58740;50.672;18.690;2023-12-07T02:26:33;77.80;;;30.30;;
71080;SDS011;58740;50.672;18.690;2023-12-07T02:29:07;75.70;;;28.60;;
71080;SDS011;58740;50.672;18.690;2023-12-07T02:31:41;77.50;;;31.40;;
71080;SDS011;58740;50.672;18.690;2023-12-07T02:34:14;81.20;;;31.10;;
71080;SDS011;58740;50.672;18.690;2023-12-07T02:36:48;79.90;;;30.80;;
71080;SDS011;58740;50.672;18.690;2023-12-07T02:39:24;81.30;;;33.30;;
71080;SDS011;58740;50.672;18.690;2023-12-07T02:41:58;90.20;;;32.70;;
71080;SDS011;58740;50.672;18.690;2023-12-07T02:44:31;83.40;;;31.70;;
71080;SDS011;58740;50.672;18.690;2023-12-07T02:47:05;78.90;;;31.10;;
71080;SDS011;58740;50.672;18.690;2023-12-07T02:49:39;71.10;;;29.60;;
71080;SDS011;58740;50.672;18.690;2023-12-07T02:52:13;74.60;;;29.70;;
71080;SDS011;58740;50.672;18.690;2023-12-07T02:54:47;76.40;;;30.60;;
71080;SDS011;58740;50.672;18.690;2023-12-07T02:57:20;72.00;;;28.40;;
71080;SDS011;58740;50.672;18.690;2023-12-07T02:59:53;80.90;;;30.70;;
71080;SDS011;58740;50.672;18.690;2023-12-07T03:02:27;75.90;;;30.80;;
71080;SDS011;58740;50.672;18.690;2023-12-07T03:05:00;87.60;;;32.40;;
71080;SDS011;58740;50.672;18.690;2023-12-07T03:07:33;71.60;;;30.40;;
71080;SDS011;58740;50.672;18.690;2023-12-07T03:10:08;78.10;;;32.50;;
71080;SDS011;58740;50.672;18.690;2023-12-07T03:12:42;83.50;;;31.70;;
71080;SDS011;58740;50.672;18.690;2023-12-07T03:15:16;81.80;;;32.00;;
71080;SDS011;58740;50.672;18.690;2023-12-07T03:17:50;73.00;;;30.40;;
71080;SDS011;58740;50.672;18.690;2023-12-07T03:20:23;76.70;;;29.00;;
71080;SDS011;58740;50.672;18.690;2023-12-07T03:22:56;86.00;;;32.00;;
71080;SDS011;58740;50.672;18.690;2023-12-07T03:25:30;77.50;;;30.50;;
71080;SDS011;58740;50.672;18.690;2023-12-07T03:28:04;82.80;;;31.20;;
71080;SDS011;58740;50.672;18.690;2023-12-07T03:30:37;66.10;;;26.10;;
71080;SDS011;58740;50.672;18.690;2023-12-07T03:33:10;65.30;;;24.10;;
71080;SDS011;58740;50.672;18.690;2023-12-07T03:35:44;70.60;;;27.50;;
71080;SDS011;58740;50.672;18.690;2023-12-07T03:38:18;73.70;;;26.80;;
71080;SDS011;58740;50.672;18.690;2023-12-07T03:40:51;94.10;;;32.20;;
71080;SDS011;58740;50.672;18.690;2023-12-07T03:43:24;79.00;;;31.00;;
71080;SDS011;58740;50.672;18.690;2023-12-07T03:45:58;85.10;;;30.20;;
71080;SDS011;58740;50.672;18.690;2023-12-07T03:48:35;69.30;;;28.80;;
71080;SDS011;58740;50.672;18.690;2023-12-07T03:51:11;58.60;;;22.80;;
71080;SDS011;58740;50.672;18.690;2023-12-07T03:53:47;70.90;;;28.20;;
71080;SDS011;58740;50.672;18.690;2023-12-07T03:56:26;74.90;;;30.40;;
71080;SDS011;58740;50.672;18.690;2023-12-07T03:59:01;61.80;;;21.80;;
71080;SDS011;58740;50.672;18.690;2023-12-07T04:01:34;60.30;;;23.70;;
71080;SDS011;58740;50.672;18.690;2023-12-07T04:04:07;70.20;;;27.70;;
71080;SDS011;58740;50.672;18.690;2023-12-07T04:06:41;81.60;;;28.60;;
71080;SDS011;58740;50.672;18.690;2023-12-07T04:09:14;77.50;;;29.00;;
71080;SDS011;58740;50.672;18.690;2023-12-07T04:11:47;76.80;;;31.60;;
71080;SDS011;58740;50.672;18.690;2023-12-07T04:14:21;73.30;;;26.70;;
71080;SDS011;58740;50.672;18.690;2023-12-07T04:16:54;80.20;;;29.90;;
71080;SDS011;58740;50.672;18.690;2023-12-07T04:19:28;77.70;;;29.10;;
71080;SDS011;58740;50.672;18.690;2023-12-07T04:22:01;77.70;;;30.00;;
71080;SDS011;58740;50.672;18.690;2023-12-07T04:24:35;74.40;;;26.40;;
71080;SDS011;58740;50.672;18.690;2023-12-07T04:27:08;71.40;;;29.00;;
71080;SDS011;58740;50.672;18.690;2023-12-07T04:29:41;74.60;;;26.50;;
71080;SDS011;58740;50.672;18.690;2023-12-07T04:32:15;74.00;;;29.60;;
71080;SDS011;58740;50.672;18.690;2023-12-07T04:34:48;79.70;;;28.40;;
71080;SDS011;58740;50.672;18.690;2023-12-07T04:37:21;76.60;;;28.10;;
71080;SDS011;58740;50.672;18.690;2023-12-07T04:39:55;88.30;;;34.00;;
71080;SDS011;58740;50.672;18.690;2023-12-07T04:42:29;82.40;;;31.00;;
71080;SDS011;58740;50.672;18.690;2023-12-07T04:45:02;83.30;;;29.80;;
71080;SDS011;58740;50.672;18.690;2023-12-07T04:47:37;81.60;;;32.00;;
71080;SDS011;58740;50.672;18.690;2023-12-07T04:50:10;91.70;;;30.50;;
71080;SDS011;58740;50.672;18.690;2023-12-07T04:52:44;95.30;;;31.60;;
71080;SDS011;58740;50.672;18.690;2023-12-07T04:55:18;77.60;;;29.10;;
71080;SDS011;58740;50.672;18.690;2023-12-07T04:57:51;81.40;;;29.40;;
71080;SDS011;58740;50.672;18.690;2023-12-07T05:00:25;83.70;;;30.70;;
71080;SDS011;58740;50.672;18.690;2023-12-07T05:02:58;79.50;;;28.70;;
71080;SDS011;58740;50.672;18.690;2023-12-07T05:05:33;82.50;;;28.70;;
71080;SDS011;58740;50.672;18.690;2023-12-07T05:08:06;77.90;;;28.60;;
71080;SDS011;58740;50.672;18.690;2023-12-07T05:10:40;73.60;;;27.80;;
71080;SDS011;58740;50.672;18.690;2023-12-07T05:13:13;74.80;;;29.60;;
71080;SDS011;58740;50.672;18.690;2023-12-07T05:15:47;73.60;;;27.70;;
71080;SDS011;58740;50.672;18.690;2023-12-07T05:18:20;81.80;;;29.70;;
71080;SDS011;58740;50.672;18.690;2023-12-07T05:20:53;72.30;;;27.30;;
71080;SDS011;58740;50.672;18.690;2023-12-07T05:23:27;82.70;;;29.60;;
71080;SDS011;58740;50.672;18.690;2023-12-07T05:26:00;77.90;;;29.70;;
71080;SDS011;58740;50.672;18.690;2023-12-07T05:28:35;79.40;;;31.40;;
71080;SDS011;58740;50.672;18.690;2023-12-07T05:31:14;76.80;;;30.40;;
71080;SDS011;58740;50.672;18.690;2023-12-07T05:33:49;90.90;;;33.80;;
71080;SDS011;58740;50.672;18.690;2023-12-07T05:36:22;98.70;;;34.30;;
71080;SDS011;58740;50.672;18.690;2023-12-07T05:38:56;121.40;;;45.90;;
71080;SDS011;58740;50.672;18.690;2023-12-07T05:41:30;115.40;;;43.60;;
71080;SDS011;58740;50.672;18.690;2023-12-07T05:44:04;124.20;;;46.50;;
71080;SDS011;58740;50.672;18.690;2023-12-07T05:46:38;89.90;;;33.70;;
71080;SDS011;58740;50.672;18.690;2023-12-07T05:49:15;101.40;;;36.40;;
71080;SDS011;58740;50.672;18.690;2023-12-07T05:51:48;94.10;;;33.90;;
71080;SDS011;58740;50.672;18.690;2023-12-07T05:54:23;74.40;;;31.10;;
71080;SDS011;58740;50.672;18.690;2023-12-07T05:56:57;72.20;;;27.20;;
71080;SDS011;58740;50.672;18.690;2023-12-07T05:59:30;95.40;;;32.80;;
71080;SDS011;58740;50.672;18.690;2023-12-07T06:02:04;94.70;;;35.70;;
71080;SDS011;58740;50.672;18.690;2023-12-07T06:04:37;95.40;;;34.70;;
71080;SDS011;58740;50.672;18.690;2023-12-07T06:07:11;81.50;;;30.80;;
71080;SDS011;58740;50.672;18.690;2023-12-07T06:09:45;79.30;;;30.10;;
71080;SDS011;58740;50.672;18.690;2023-12-07T06:12:18;84.30;;;28.50;;
71080;SDS011;58740;50.672;18.690;2023-12-07T06:14:52;84.90;;;30.50;;
71080;SDS011;58740;50.672;18.690;2023-12-07T06:17:26;98.60;;;35.10;;
71080;SDS011;58740;50.672;18.690;2023-12-07T06:19:59;90.10;;;34.00;;
71080;SDS011;58740;50.672;18.690;2023-12-07T06:22:34;88.80;;;33.80;;
71080;SDS011;58740;50.672;18.690;2023-12-07T06:25:08;80.30;;;29.80;;
71080;SDS011;58740;50.672;18.690;2023-12-07T06:27:43;81.60;;;28.00;;
71080;SDS011;58740;50.672;18.690;2023-12-07T06:30:16;80.20;;;25.50;;
71080;SDS011;58740;50.672;18.690;2023-12-07T06:32:51;86.60;;;28.10;;
71080;SDS011;58740;50.672;18.690;2023-12-07T06:35:24;83.70;;;31.00;;
71080;SDS011;58740;50.672;18.690;2023-12-07T06:37:58;82.60;;;28.30;;
71080;SDS011;58740;50.672;18.690;2023-12-07T06:40:32;80.40;;;28.50;;
71080;SDS011;58740;50.672;18.690;2023-12-07T06:43:05;81.80;;;29.90;;
71080;SDS011;58740;50.672;18.690;2023-12-07T06:45:39;89.90;;;29.50;;
71080;SDS011;58740;50.672;18.690;2023-12-07T06:48:13;77.80;;;29.00;;
71080;SDS011;58740;50.672;18.690;2023-12-07T06:50:47;77.90;;;25.40;;
71080;SDS011;58740;50.672;18.690;2023-12-07T06:53:20;81.10;;;29.30;;
71080;SDS011;58740;50.672;18.690;2023-12-07T06:55:53;94.30;;;31.90;;
71080;SDS011;58740;50.672;18.690;2023-12-07T06:58:27;87.10;;;32.10;;
71080;SDS011;58740;50.672;18.690;2023-12-07T07:01:00;101.60;;;42.40;;
71080;SDS011;58740;50.672;18.690;2023-12-07T07:03:33;115.00;;;43.50;;
71080;SDS011;58740;50.672;18.690;2023-12-07T07:06:08;110.00;;;41.40;;
71080;SDS011;58740;50.672;18.690;2023-12-07T07:08:42;100.70;;;36.70;;
71080;SDS011;58740;50.672;18.690;2023-12-07T07:11:17;122.10;;;42.30;;
71080;SDS011;58740;50.672;18.690;2023-12-07T07:13:50;118.60;;;42.10;;
71080;SDS011;58740;50.672;18.690;2023-12-07T07:16:23;113.90;;;40.70;;
71080;SDS011;58740;50.672;18.690;2023-12-07T07:18:57;134.40;;;47.70;;
71080;SDS011;58740;50.672;18.690;2023-12-07T07:21:31;121.70;;;44.40;;
71080;SDS011;58740;50.672;18.690;2023-12-07T07:24:05;108.60;;;42.00;;
71080;SDS011;58740;50.672;18.690;2023-12-07T07:26:39;105.90;;;36.70;;
71080;SDS011;58740;50.672;18.690;2023-12-07T07:29:13;92.80;;;35.40;;
71080;SDS011;58740;50.672;18.690;2023-12-07T07:31:46;106.80;;;41.80;;
71080;SDS011;58740;50.672;18.690;2023-12-07T07:34:20;108.30;;;38.40;;
71080;SDS011;58740;50.672;18.690;2023-12-07T07:36:54;96.30;;;35.70;;
71080;SDS011;58740;50.672;18.690;2023-12-07T07:39:27;90.20;;;33.70;;
71080;SDS011;58740;50.672;18.690;2023-12-07T07:42:01;90.40;;;32.70;;
71080;SDS011;58740;50.672;18.690;2023-12-07T07:44:35;108.20;;;40.10;;
71080;SDS011;58740;50.672;18.690;2023-12-07T07:47:08;114.50;;;45.50;;
71080;SDS011;58740;50.672;18.690;2023-12-07T07:49:42;106.70;;;41.10;;
71080;SDS011;58740;50.672;18.690;2023-12-07T07:52:15;127.90;;;46.30;;
71080;SDS011;58740;50.672;18.690;2023-12-07T07:54:49;121.90;;;45.60;;
71080;SDS011;58740;50.672;18.690;2023-12-07T07:57:23;111.60;;;40.00;;
71080;SDS011;58740;50.672;18.690;2023-12-07T07:59:57;96.20;;;33.30;;
71080;SDS011;58740;50.672;18.690;2023-12-07T08:02:30;95.00;;;33.70;;
71080;SDS011;58740;50.672;18.690;2023-12-07T08:05:05;68.80;;;25.70;;
71080;SDS011;58740;50.672;18.690;2023-12-07T08:07:40;86.20;;;32.20;;
71080;SDS011;58740;50.672;18.690;2023-12-07T08:10:13;83.20;;;29.40;;
71080;SDS011;58740;50.672;18.690;2023-12-07T08:12:47;94.60;;;34.70;;
71080;SDS011;58740;50.672;18.690;2023-12-07T08:15:20;96.50;;;37.20;;
71080;SDS011;58740;50.672;18.690;2023-12-07T08:17:54;128.40;;;42.70;;
71080;SDS011;58740;50.672;18.690;2023-12-07T08:20:28;124.20;;;47.10;;
71080;SDS011;58740;50.672;18.690;2023-12-07T08:23:02;95.00;;;37.60;;
71080;SDS011;58740;50.672;18.690;2023-12-07T08:25:36;95.50;;;35.50;;
71080;SDS011;58740;50.672;18.690;2023-12-07T08:28:09;85.10;;;31.20;;
71080;SDS011;58740;50.672;18.690;2023-12-07T08:30:44;84.80;;;29.80;;
71080;SDS011;58740;50.672;18.690;2023-12-07T08:33:17;75.90;;;25.10;;
71080;SDS011;58740;50.672;18.690;2023-12-07T08:35:51;60.50;;;22.80;;
71080;SDS011;58740;50.672;18.690;2023-12-07T08:38:26;72.20;;;28.00;;
71080;SDS011;58740;50.672;18.690;2023-12-07T08:41:00;88.50;;;30.00;;
71080;SDS011;58740;50.672;18.690;2023-12-07T08:43:33;70.20;;;26.90;;
71080;SDS011;58740;50.672;18.690;2023-12-07T08:46:07;71.30;;;28.10;;
71080;SDS011;58740;50.672;18.690;2023-12-07T08:48:41;80.60;;;31.50;;
71080;SDS011;58740;50.672;18.690;2023-12-07T08:51:14;81.40;;;32.40;;
71080;SDS011;58740;50.672;18.690;2023-12-07T08:53:47;90.10;;;31.90;;
71080;SDS011;58740;50.672;18.690;2023-12-07T08:56:24;85.90;;;31.40;;
71080;SDS011;58740;50.672;18.690;2023-12-07T08:58:57;63.40;;;26.90;;
71080;SDS011;58740;50.672;18.690;2023-12-07T09:01:31;72.70;;;26.30;;
71080;SDS011;58740;50.672;18.690;2023-12-07T09:04:05;84.60;;;29.80;;
71080;SDS011;58740;50.672;18.690;2023-12-07T09:06:39;76.30;;;29.80;;
71080;SDS011;58740;50.672;18.690;2023-12-07T09:09:12;77.10;;;29.40;;
71080;SDS011;58740;50.672;18.690;2023-12-07T09:11:45;70.40;;;27.30;;
71080;SDS011;58740;50.672;18.690;2023-12-07T09:14:20;75.80;;;28.80;;
71080;SDS011;58740;50.672;18.690;2023-12-07T09:16:53;77.00;;;30.00;;
71080;SDS011;58740;50.672;18.690;2023-12-07T09:19:27;90.60;;;32.10;;
71080;SDS011;58740;50.672;18.690;2023-12-07T09:22:00;73.90;;;26.60;;
71080;SDS011;58740;50.672;18.690;2023-12-07T09:24:34;78.60;;;28.70;;
71080;SDS011;58740;50.672;18.690;2023-12-07T09:27:07;78.30;;;29.20;;
71080;SDS011;58740;50.672;18.690;2023-12-07T09:29:42;81.70;;;33.40;;
71080;SDS011;58740;50.672;18.690;2023-12-07T09:32:15;85.00;;;32.40;;
71080;SDS011;58740;50.672;18.690;2023-12-07T09:34:59;76.40;;;29.90;;
71080;SDS011;58740;50.672;18.690;2023-12-07T09:37:32;94.60;;;30.30;;
71080;SDS011;58740;50.672;18.690;2023-12-07T09:40:08;82.60;;;32.20;;
71080;SDS011;58740;50.672;18.690;2023-12-07T09:42:46;102.30;;;39.20;;
71080;SDS011;58740;50.672;18.690;2023-12-07T09:45:21;103.90;;;42.00;;
71080;SDS011;58740;50.672;18.690;2023-12-07T09:47:57;99.20;;;38.10;;
71080;SDS011;58740;50.672;18.690;2023-12-07T09:50:31;103.60;;;35.30;;
71080;SDS011;58740;50.672;18.690;2023-12-07T09:53:07;96.10;;;36.30;;
71080;SDS011;58740;50.672;18.690;2023-12-07T09:55:41;109.60;;;39.00;;
71080;SDS011;58740;50.672;18.690;2023-12-07T09:58:14;104.60;;;36.60;;
71080;SDS011;58740;50.672;18.690;2023-12-07T10:01:01;103.40;;;37.90;;
71080;SDS011;58740;50.672;18.690;2023-12-07T10:03:35;115.70;;;47.50;;
71080;SDS011;58740;50.672;18.690;2023-12-07T10:06:09;103.30;;;42.00;;
71080;SDS011;58740;50.672;18.690;2023-12-07T10:08:42;95.80;;;38.90;;
71080;SDS011;58740;50.672;18.690;2023-12-07T10:11:18;85.50;;;32.20;;
71080;SDS011;58740;50.672;18.690;2023-12-07T10:13:51;88.60;;;32.80;;
71080;SDS011;58740;50.672;18.690;2023-12-07T10:16:25;114.80;;;37.70;;
71080;SDS011;58740;50.672;18.690;2023-12-07T10:19:14;93.20;;;36.80;;
71080;SDS011;58740;50.672;18.690;2023-12-07T10:22:12;98.40;;;40.90;;
71080;SDS011;58740;50.672;18.690;2023-12-07T10:24:47;92.20;;;34.70;;
71080;SDS011;58740;50.672;18.690;2023-12-07T10:27:20;94.60;;;34.70;;
71080;SDS011;58740;50.672;18.690;2023-12-07T10:29:54;76.30;;;30.80;;
71080;SDS011;58740;50.672;18.690;2023-12-07T10:32:28;76.30;;;34.00;;
71080;SDS011;58740;50.672;18.690;2023-12-07T10:35:02;83.30;;;32.10;;
71080;SDS011;58740;50.672;18.690;2023-12-07T10:37:37;89.90;;;33.50;;
71080;SDS011;58740;50.672;18.690;2023-12-07T10:40:12;91.70;;;32.30;;
71080;SDS011;58740;50.672;18.690;2023-12-07T10:42:48;86.40;;;35.70;;
71080;SDS011;58740;50.672;18.690;2023-12-07T10:45:29;112.30;;;42.00;;
71080;SDS011;58740;50.672;18.690;2023-12-07T10:48:05;105.50;;;40.60;;
71080;SDS011;58740;50.672;18.690;2023-12-07T10:50:42;110.10;;;40.80;;
71080;SDS011;58740;50.672;18.690;2023-12-07T10:53:26;122.10;;;44.60;;
71080;SDS011;58740;50.672;18.690;2023-12-07T10:56:05;106.40;;;41.40;;
71080;SDS011;58740;50.672;18.690;2023-12-07T10:58:44;112.70;;;42.60;;
71080;SDS011;58740;50.672;18.690;2023-12-07T11:01:19;104.70;;;44.70;;
71080;SDS011;58740;50.672;18.690;2023-12-07T11:03:54;121.60;;;44.50;;
71080;SDS011;58740;50.672;18.690;2023-12-07T11:06:30;109.10;;;43.80;;
71080;SDS011;58740;50.672;18.690;2023-12-07T11:09:07;108.30;;;41.30;;
71080;SDS011;58740;50.672;18.690;2023-12-07T11:11:52;112.30;;;40.70;;
71080;SDS011;58740;50.672;18.690;2023-12-07T11:14:29;118.20;;;45.10;;
71080;SDS011;58740;50.672;18.690;2023-12-07T11:17:05;76.70;;;33.00;;
71080;SDS011;58740;50.672;18.690;2023-12-07T11:19:48;93.20;;;37.20;;
71080;SDS011;58740;50.672;18.690;2023-12-07T11:22:22;93.80;;;35.60;;
71080;SDS011;58740;50.672;18.690;2023-12-07T11:24:58;97.20;;;40.00;;
71080;SDS011;58740;50.672;18.690;2023-12-07T11:27:35;105.50;;;41.30;;
71080;SDS011;58740;50.672;18.690;2023-12-07T11:30:12;100.30;;;39.40;;
71080;SDS011;58740;50.672;18.690;2023-12-07T11:32:47;105.30;;;38.10;;
71080;SDS011;58740;50.672;18.690;2023-12-07T11:35:21;116.40;;;42.20;;
71080;SDS011;58740;50.672;18.690;2023-12-07T11:38:08;106.50;;;42.80;;
71080;SDS011;58740;50.672;18.690;2023-12-07T11:40:43;116.30;;;43.10;;
71080;SDS011;58740;50.672;18.690;2023-12-07T11:43:33;105.30;;;42.30;;
71080;SDS011;58740;50.672;18.690;2023-12-07T11:46:14;114.10;;;45.50;;
71080;SDS011;58740;50.672;18.690;2023-12-07T11:48:51;116.30;;;44.00;;
71080;SDS011;58740;50.672;18.690;2023-12-07T11:51:26;125.40;;;51.30;;
71080;SDS011;58740;50.672;18.690;2023-12-07T11:54:02;125.50;;;52.90;;
71080;SDS011;58740;50.672;18.690;2023-12-07T11:56:36;128.50;;;57.00;;
71080;SDS011;58740;50.672;18.690;2023-12-07T11:59:09;114.50;;;48.00;;
71080;SDS011;58740;50.672;18.690;2023-12-07T12:01:49;96.80;;;41.90;;
71080;SDS011;58740;50.672;18.690;2023-12-07T12:04:24;97.20;;;39.20;;
71080;SDS011;58740;50.672;18.690;2023-12-07T12:06:59;98.70;;;38.40;;
71080;SDS011;58740;50.672;18.690;2023-12-07T12:09:32;96.80;;;40.80;;
71080;SDS011;58740;50.672;18.690;2023-12-07T12:12:06;104.70;;;43.10;;
71080;SDS011;58740;50.672;18.690;2023-12-07T12:14:40;82.30;;;34.60;;
71080;SDS011;58740;50.672;18.690;2023-12-07T12:17:17;89.80;;;37.70;;
71080;SDS011;58740;50.672;18.690;2023-12-07T12:19:50;88.10;;;37.30;;
71080;SDS011;58740;50.672;18.690;2023-12-07T12:22:25;94.80;;;35.90;;
71080;SDS011;58740;50.672;18.690;2023-12-07T12:24:59;91.20;;;35.80;;
71080;SDS011;58740;50.672;18.690;2023-12-07T12:27:32;107.10;;;49.50;;
71080;SDS011;58740;50.672;18.690;2023-12-07T12:30:08;104.40;;;49.00;;
71080;SDS011;58740;50.672;18.690;2023-12-07T12:32:47;84.80;;;36.00;;
71080;SDS011;58740;50.672;18.690;2023-12-07T12:35:21;84.90;;;33.60;;
71080;SDS011;58740;50.672;18.690;2023-12-07T12:37:55;132.70;;;49.70;;
71080;SDS011;58740;50.672;18.690;2023-12-07T12:40:29;106.20;;;39.20;;
71080;SDS011;58740;50.672;18.690;2023-12-07T12:43:03;123.30;;;52.20;;
71080;SDS011;58740;50.672;18.690;2023-12-07T12:45:38;117.80;;;46.60;;
71080;SDS011;58740;50.672;18.690;2023-12-07T12:48:12;131.90;;;61.60;;
71080;SDS011;58740;50.672;18.690;2023-12-07T12:50:45;137.10;;;54.70;;
71080;SDS011;58740;50.672;18.690;2023-12-07T12:53:19;112.90;;;45.20;;
71080;SDS011;58740;50.672;18.690;2023-12-07T12:55:53;122.10;;;45.60;;
71080;SDS011;58740;50.672;18.690;2023-12-07T12:58:28;110.20;;;43.90;;
71080;SDS011;58740;50.672;18.690;2023-12-07T13:01:01;115.70;;;45.50;;
71080;SDS011;58740;50.672;18.690;2023-12-07T13:03:37;96.10;;;39.80;;
71080;SDS011;58740;50.672;18.690;2023-12-07T13:06:10;91.00;;;38.20;;
71080;SDS011;58740;50.672;18.690;2023-12-07T13:08:47;101.70;;;40.80;;
71080;SDS011;58740;50.672;18.690;2023-12-07T13:11:22;90.00;;;38.80;;
71080;SDS011;58740;50.672;18.690;2023-12-07T13:13:55;101.80;;;43.10;;
71080;SDS011;58740;50.672;18.690;2023-12-07T13:16:29;105.60;;;40.60;;
71080;SDS011;58740;50.672;18.690;2023-12-07T13:19:02;99.50;;;41.30;;
71080;SDS011;58740;50.672;18.690;2023-12-07T13:21:37;112.00;;;46.70;;
71080;SDS011;58740;50.672;18.690;2023-12-07T13:24:11;104.50;;;46.40;;
71080;SDS011;58740;50.672;18.690;2023-12-07T13:26:45;113.30;;;49.20;;
71080;SDS011;58740;50.672;18.690;2023-12-07T13:29:19;109.80;;;43.80;;
71080;SDS011;58740;50.672;18.690;2023-12-07T13:32:06;102.80;;;40.10;;
71080;SDS011;58740;50.672;18.690;2023-12-07T13:34:40;109.50;;;40.70;;
71080;SDS011;58740;50.672;18.690;2023-12-07T13:37:15;102.00;;;42.10;;
71080;SDS011;58740;50.672;18.690;2023-12-07T13:39:49;118.60;;;45.50;;
71080;SDS011;58740;50.672;18.690;2023-12-07T13:42:29;145.70;;;58.00;;
71080;SDS011;58740;50.672;18.690;2023-12-07T13:45:04;143.50;;;59.60;;
71080;SDS011;58740;50.672;18.690;2023-12-07T13:47:39;179.10;;;69.80;;
71080;SDS011;58740;50.672;18.690;2023-12-07T13:50:13;122.20;;;49.20;;
71080;SDS011;58740;50.672;18.690;2023-12-07T13:52:47;286.50;;;113.50;;
71080;SDS011;58740;50.672;18.690;2023-12-07T13:55:21;205.50;;;80.30;;
71080;SDS011;58740;50.672;18.690;2023-12-07T13:57:55;325.70;;;116.80;;
71080;SDS011;58740;50.672;18.690;2023-12-07T14:00:30;337.40;;;107.70;;
71080;SDS011;58740;50.672;18.690;2023-12-07T14:03:05;280.80;;;91.00;;
71080;SDS011;58740;50.672;18.690;2023-12-07T14:05:39;287.20;;;93.20;;
71080;SDS011;58740;50.672;18.690;2023-12-07T14:08:12;304.60;;;103.50;;
71080;SDS011;58740;50.672;18.690;2023-12-07T14:10:46;282.70;;;93.80;;
71080;SDS011;58740;50.672;18.690;2023-12-07T14:13:19;376.70;;;126.60;;
71080;SDS011;58740;50.672;18.690;2023-12-07T14:15:56;327.00;;;115.50;;
71080;SDS011;58740;50.672;18.690;2023-12-07T14:18:45;327.70;;;111.20;;
71080;SDS011;58740;50.672;18.690;2023-12-07T14:21:34;211.50;;;77.50;;
71080;SDS011;58740;50.672;18.690;2023-12-07T14:24:18;186.80;;;69.60;;
71080;SDS011;58740;50.672;18.690;2023-12-07T14:26:51;133.20;;;53.20;;
71080;SDS011;58740;50.672;18.690;2023-12-07T14:29:26;131.90;;;51.90;;
71080;SDS011;58740;50.672;18.690;2023-12-07T14:31:59;123.40;;;50.50;;
71080;SDS011;58740;50.672;18.690;2023-12-07T14:34:34;125.70;;;52.10;;
71080;SDS011;58740;50.672;18.690;2023-12-07T14:37:08;126.70;;;51.40;;
71080;SDS011;58740;50.672;18.690;2023-12-07T14:39:42;120.30;;;49.90;;
71080;SDS011;58740;50.672;18.690;2023-12-07T14:42:16;123.50;;;49.80;;
71080;SDS011;58740;50.672;18.690;2023-12-07T14:44:50;107.30;;;44.50;;
71080;SDS011;58740;50.672;18.690;2023-12-07T14:47:23;109.50;;;44.10;;